sensor_id;sensor_type;location;lat;lon;timestamp;temperature;humidity
21895;DHT22;11112;51.270;7.224;2022-08-01T00:01:54;22.00;94.80
21895;DHT22;11112;51.270;7.224;2022-08-01T00:04:21;21.90;94.30
21895;DHT22;11112;51.270;7.224;2022-08-01T00:06:48;21.90;94.40
21895;DHT22;11112;51.270;7.224;2022-08-01T00:09:16;21.90;94.40
21895;DHT22;11112;51.270;7.224;2022-08-01T00:11:44;21.90;94.50
21895;DHT22;11112;51.270;7.224;2022-08-01T00:14:11;21.90;94.60
21895;DHT22;11112;51.270;7.224;2022-08-01T00:16:38;21.90;94.60
21895;DHT22;11112;51.270;7.224;2022-08-01T00:19:05;21.90;94.60
21895;DHT22;11112;51.270;7.224;2022-08-01T00:21:32;21.90;94.60
21895;DHT22;11112;51.270;7.224;2022-08-01T00:23:59;21.90;94.60
21895;DHT22;11112;51.270;7.224;2022-08-01T00:26:27;21.90;94.60
21895;DHT22;11112;51.270;7.224;2022-08-01T00:28:55;21.80;94.60
21895;DHT22;11112;51.270;7.224;2022-08-01T00:31:22;21.80;94.60
21895;DHT22;11112;51.270;7.224;2022-08-01T00:33:49;21.80;94.60
21895;DHT22;11112;51.270;7.224;2022-08-01T00:36:16;21.80;94.60
21895;DHT22;11112;51.270;7.224;2022-08-01T00:38:43;21.80;94.60
21895;DHT22;11112;51.270;7.224;2022-08-01T00:41:10;21.80;94.70
21895;DHT22;11112;51.270;7.224;2022-08-01T00:43:37;21.80;94.80
21895;DHT22;11112;51.270;7.224;2022-08-01T00:46:05;21.80;94.80
21895;DHT22;11112;51.270;7.224;2022-08-01T00:48:32;21.70;94.90
21895;DHT22;11112;51.270;7.224;2022-08-01T00:51:00;21.70;94.90
21895;DHT22;11112;51.270;7.224;2022-08-01T00:53:27;21.70;95.10
21895;DHT22;11112;51.270;7.224;2022-08-01T00:55:54;21.70;95.00
21895;DHT22;11112;51.270;7.224;2022-08-01T00:58:21;21.70;94.90
21895;DHT22;11112;51.270;7.224;2022-08-01T01:00:48;21.70;94.90
21895;DHT22;11112;51.270;7.224;2022-08-01T01:03:17;21.60;94.90
21895;DHT22;11112;51.270;7.224;2022-08-01T01:05:50;21.70;94.90
21895;DHT22;11112;51.270;7.224;2022-08-01T01:08:30;21.70;95.00
21895;DHT22;11112;51.270;7.224;2022-08-01T01:11:05;21.70;95.10
21895;DHT22;11112;51.270;7.224;2022-08-01T01:13:41;21.70;95.10
21895;DHT22;11112;51.270;7.224;2022-08-01T01:16:13;21.70;95.10
21895;DHT22;11112;51.270;7.224;2022-08-01T01:18:45;21.70;95.10
21895;DHT22;11112;51.270;7.224;2022-08-01T01:21:33;21.70;94.90
21895;DHT22;11112;51.270;7.224;2022-08-01T01:24:11;21.70;94.90
21895;DHT22;11112;51.270;7.224;2022-08-01T01:26:51;21.70;94.90
21895;DHT22;11112;51.270;7.224;2022-08-01T01:29:25;21.70;95.00
21895;DHT22;11112;51.270;7.224;2022-08-01T01:31:57;21.70;95.10
21895;DHT22;11112;51.270;7.224;2022-08-01T01:34:29;21.70;95.00
21895;DHT22;11112;51.270;7.224;2022-08-01T01:36:59;21.60;95.00
21895;DHT22;11112;51.270;7.224;2022-08-01T01:39:29;21.60;95.10
21895;DHT22;11112;51.270;7.224;2022-08-01T01:41:57;21.70;95.00
21895;DHT22;11112;51.270;7.224;2022-08-01T01:44:27;21.70;94.90
21895;DHT22;11112;51.270;7.224;2022-08-01T01:46:56;21.70;95.00
21895;DHT22;11112;51.270;7.224;2022-08-01T01:49:27;21.60;95.00
21895;DHT22;11112;51.270;7.224;2022-08-01T01:51:56;21.60;95.00
21895;DHT22;11112;51.270;7.224;2022-08-01T01:54:31;21.60;94.90
21895;DHT22;11112;51.270;7.224;2022-08-01T01:57:02;21.60;95.00
21895;DHT22;11112;51.270;7.224;2022-08-01T01:59:34;21.60;95.00
21895;DHT22;11112;51.270;7.224;2022-08-01T02:02:03;21.60;95.00
21895;DHT22;11112;51.270;7.224;2022-08-01T02:04:32;21.60;95.00
21895;DHT22;11112;51.270;7.224;2022-08-01T02:07:01;21.70;95.00
21895;DHT22;11112;51.270;7.224;2022-08-01T02:09:30;21.70;95.00
21895;DHT22;11112;51.270;7.224;2022-08-01T02:11:59;21.70;95.00
21895;DHT22;11112;51.270;7.224;2022-08-01T02:14:28;21.70;94.90
21895;DHT22;11112;51.270;7.224;2022-08-01T02:16:57;21.60;95.00
21895;DHT22;11112;51.270;7.224;2022-08-01T02:19:26;21.60;94.90
21895;DHT22;11112;51.270;7.224;2022-08-01T02:21:57;21.60;94.90
21895;DHT22;11112;51.270;7.224;2022-08-01T02:24:31;21.60;94.90
21895;DHT22;11112;51.270;7.224;2022-08-01T02:27:06;21.60;95.00
21895;DHT22;11112;51.270;7.224;2022-08-01T02:29:40;21.60;94.90
21895;DHT22;11112;51.270;7.224;2022-08-01T02:32:13;21.60;94.90
21895;DHT22;11112;51.270;7.224;2022-08-01T02:34:46;21.60;94.90
21895;DHT22;11112;51.270;7.224;2022-08-01T02:37:17;21.60;94.90
21895;DHT22;11112;51.270;7.224;2022-08-01T02:39:48;21.60;94.90
21895;DHT22;11112;51.270;7.224;2022-08-01T02:42:18;21.60;95.00
21895;DHT22;11112;51.270;7.224;2022-08-01T02:44:48;21.60;94.90
21895;DHT22;11112;51.270;7.224;2022-08-01T02:47:17;21.60;95.00
21895;DHT22;11112;51.270;7.224;2022-08-01T02:49:48;21.50;95.00
21895;DHT22;11112;51.270;7.224;2022-08-01T02:52:18;21.50;95.00
21895;DHT22;11112;51.270;7.224;2022-08-01T02:54:49;21.50;95.00
21895;DHT22;11112;51.270;7.224;2022-08-01T02:57:18;21.50;95.00
21895;DHT22;11112;51.270;7.224;2022-08-01T02:59:49;21.50;95.00
21895;DHT22;11112;51.270;7.224;2022-08-01T03:02:17;21.50;95.00
21895;DHT22;11112;51.270;7.224;2022-08-01T03:04:46;21.50;94.90
21895;DHT22;11112;51.270;7.224;2022-08-01T03:07:15;21.50;95.00
21895;DHT22;11112;51.270;7.224;2022-08-01T03:09:45;21.50;95.00
21895;DHT22;11112;51.270;7.224;2022-08-01T03:12:15;21.50;95.00
21895;DHT22;11112;51.270;7.224;2022-08-01T03:14:45;21.50;95.00
21895;DHT22;11112;51.270;7.224;2022-08-01T03:17:15;21.50;95.00
21895;DHT22;11112;51.270;7.224;2022-08-01T03:19:45;21.50;95.00
21895;DHT22;11112;51.270;7.224;2022-08-01T03:22:13;21.50;95.00
21895;DHT22;11112;51.270;7.224;2022-08-01T03:24:41;21.50;95.00
21895;DHT22;11112;51.270;7.224;2022-08-01T03:27:09;21.40;95.00
21895;DHT22;11112;51.270;7.224;2022-08-01T03:29:37;21.50;95.00
21895;DHT22;11112;51.270;7.224;2022-08-01T03:32:08;21.50;95.00
21895;DHT22;11112;51.270;7.224;2022-08-01T03:34:37;21.50;95.10
21895;DHT22;11112;51.270;7.224;2022-08-01T03:37:08;21.40;95.20
21895;DHT22;11112;51.270;7.224;2022-08-01T03:39:44;21.40;95.20
21895;DHT22;11112;51.270;7.224;2022-08-01T03:42:17;21.40;95.60
21895;DHT22;11112;51.270;7.224;2022-08-01T03:44:50;21.50;95.20
21895;DHT22;11112;51.270;7.224;2022-08-01T03:47:26;21.40;95.20
21895;DHT22;11112;51.270;7.224;2022-08-01T03:49:58;21.40;95.30
21895;DHT22;11112;51.270;7.224;2022-08-01T03:52:28;21.40;95.30
21895;DHT22;11112;51.270;7.224;2022-08-01T03:54:58;21.40;95.30
21895;DHT22;11112;51.270;7.224;2022-08-01T03:57:28;21.40;95.30
21895;DHT22;11112;51.270;7.224;2022-08-01T03:59:56;21.40;95.20
21895;DHT22;11112;51.270;7.224;2022-08-01T04:02:26;21.40;95.10
21895;DHT22;11112;51.270;7.224;2022-08-01T04:04:54;21.50;95.20
21895;DHT22;11112;51.270;7.224;2022-08-01T04:07:22;21.50;95.20
21895;DHT22;11112;51.270;7.224;2022-08-01T04:09:50;21.50;95.30
21895;DHT22;11112;51.270;7.224;2022-08-01T04:12:18;21.50;95.20
21895;DHT22;11112;51.270;7.224;2022-08-01T04:14:46;21.50;95.20
21895;DHT22;11112;51.270;7.224;2022-08-01T04:17:14;21.50;95.20
21895;DHT22;11112;51.270;7.224;2022-08-01T04:19:43;21.50;95.30
21895;DHT22;11112;51.270;7.224;2022-08-01T04:22:13;21.50;95.40
21895;DHT22;11112;51.270;7.224;2022-08-01T04:24:44;21.50;95.40
21895;DHT22;11112;51.270;7.224;2022-08-01T04:27:17;21.50;95.50
21895;DHT22;11112;51.270;7.224;2022-08-01T04:29:48;21.50;95.60
21895;DHT22;11112;51.270;7.224;2022-08-01T04:32:18;21.50;95.60
21895;DHT22;11112;51.270;7.224;2022-08-01T04:34:49;21.50;95.60
21895;DHT22;11112;51.270;7.224;2022-08-01T04:37:18;21.50;95.60
21895;DHT22;11112;51.270;7.224;2022-08-01T04:39:47;21.40;95.60
21895;DHT22;11112;51.270;7.224;2022-08-01T04:42:17;21.40;95.50
21895;DHT22;11112;51.270;7.224;2022-08-01T04:44:44;21.50;95.50
21895;DHT22;11112;51.270;7.224;2022-08-01T04:47:12;21.50;95.50
21895;DHT22;11112;51.270;7.224;2022-08-01T04:49:40;21.50;95.50
21895;DHT22;11112;51.270;7.224;2022-08-01T04:52:09;21.50;95.50
21895;DHT22;11112;51.270;7.224;2022-08-01T04:54:36;21.40;95.50
21895;DHT22;11112;51.270;7.224;2022-08-01T04:57:03;21.50;95.40
21895;DHT22;11112;51.270;7.224;2022-08-01T04:59:32;21.50;95.40
21895;DHT22;11112;51.270;7.224;2022-08-01T05:02:08;21.50;95.30
21895;DHT22;11112;51.270;7.224;2022-08-01T05:04:37;21.50;95.40
21895;DHT22;11112;51.270;7.224;2022-08-01T05:07:06;21.50;95.30
21895;DHT22;11112;51.270;7.224;2022-08-01T05:09:35;21.50;95.50
21895;DHT22;11112;51.270;7.224;2022-08-01T05:12:04;21.50;95.40
21895;DHT22;11112;51.270;7.224;2022-08-01T05:14:32;21.50;95.40
21895;DHT22;11112;51.270;7.224;2022-08-01T05:17:00;21.60;95.50
21895;DHT22;11112;51.270;7.224;2022-08-01T05:19:29;21.60;95.50
21895;DHT22;11112;51.270;7.224;2022-08-01T05:21:57;21.60;95.20
21895;DHT22;11112;51.270;7.224;2022-08-01T05:24:26;21.60;95.10
21895;DHT22;11112;51.270;7.224;2022-08-01T05:26:55;21.60;95.10
21895;DHT22;11112;51.270;7.224;2022-08-01T05:29:23;21.60;95.20
21895;DHT22;11112;51.270;7.224;2022-08-01T05:31:50;21.60;95.30
21895;DHT22;11112;51.270;7.224;2022-08-01T05:34:18;21.60;95.30
21895;DHT22;11112;51.270;7.224;2022-08-01T05:36:46;21.60;95.10
21895;DHT22;11112;51.270;7.224;2022-08-01T05:39:13;21.60;95.10
21895;DHT22;11112;51.270;7.224;2022-08-01T05:41:41;21.60;95.10
21895;DHT22;11112;51.270;7.224;2022-08-01T05:44:10;21.60;94.90
21895;DHT22;11112;51.270;7.224;2022-08-01T05:46:37;21.50;94.70
21895;DHT22;11112;51.270;7.224;2022-08-01T05:49:05;21.50;94.70
21895;DHT22;11112;51.270;7.224;2022-08-01T05:51:32;21.50;94.60
21895;DHT22;11112;51.270;7.224;2022-08-01T05:54:00;21.50;94.80
21895;DHT22;11112;51.270;7.224;2022-08-01T05:56:27;21.50;94.80
21895;DHT22;11112;51.270;7.224;2022-08-01T05:58:55;21.50;94.80
21895;DHT22;11112;51.270;7.224;2022-08-01T06:01:23;21.60;94.90
21895;DHT22;11112;51.270;7.224;2022-08-01T06:03:50;21.60;94.80
21895;DHT22;11112;51.270;7.224;2022-08-01T06:06:18;21.60;94.80
21895;DHT22;11112;51.270;7.224;2022-08-01T06:08:45;21.50;94.80
21895;DHT22;11112;51.270;7.224;2022-08-01T06:11:12;21.60;94.90
21895;DHT22;11112;51.270;7.224;2022-08-01T06:13:39;21.60;94.90
21895;DHT22;11112;51.270;7.224;2022-08-01T06:16:06;21.60;95.40
21895;DHT22;11112;51.270;7.224;2022-08-01T06:18:35;21.60;95.00
21895;DHT22;11112;51.270;7.224;2022-08-01T06:21:02;21.70;95.00
21895;DHT22;11112;51.270;7.224;2022-08-01T06:23:29;21.70;94.90
21895;DHT22;11112;51.270;7.224;2022-08-01T06:25:56;21.70;94.80
21895;DHT22;11112;51.270;7.224;2022-08-01T06:28:24;21.60;94.70
21895;DHT22;11112;51.270;7.224;2022-08-01T06:30:51;21.70;94.80
21895;DHT22;11112;51.270;7.224;2022-08-01T06:33:20;21.70;94.80
21895;DHT22;11112;51.270;7.224;2022-08-01T06:35:48;21.60;94.80
21895;DHT22;11112;51.270;7.224;2022-08-01T06:38:15;21.60;95.00
21895;DHT22;11112;51.270;7.224;2022-08-01T06:40:42;21.60;94.90
21895;DHT22;11112;51.270;7.224;2022-08-01T06:43:09;21.60;94.90
21895;DHT22;11112;51.270;7.224;2022-08-01T06:45:37;21.60;94.80
21895;DHT22;11112;51.270;7.224;2022-08-01T06:48:05;21.50;94.60
21895;DHT22;11112;51.270;7.224;2022-08-01T06:50:32;21.60;94.60
21895;DHT22;11112;51.270;7.224;2022-08-01T06:53:02;21.50;94.40
21895;DHT22;11112;51.270;7.224;2022-08-01T06:55:30;21.40;94.40
21895;DHT22;11112;51.270;7.224;2022-08-01T06:57:59;21.40;94.50
21895;DHT22;11112;51.270;7.224;2022-08-01T07:00:26;21.50;94.40
21895;DHT22;11112;51.270;7.224;2022-08-01T07:02:55;21.60;94.40
21895;DHT22;11112;51.270;7.224;2022-08-01T07:05:24;21.60;94.30
21895;DHT22;11112;51.270;7.224;2022-08-01T07:07:51;21.60;94.10
21895;DHT22;11112;51.270;7.224;2022-08-01T07:10:20;21.70;93.90
21895;DHT22;11112;51.270;7.224;2022-08-01T07:12:47;21.80;93.90
21895;DHT22;11112;51.270;7.224;2022-08-01T07:15:14;22.20;93.50
21895;DHT22;11112;51.270;7.224;2022-08-01T07:17:42;23.40;92.40
21895;DHT22;11112;51.270;7.224;2022-08-01T07:20:11;23.40;91.00
21895;DHT22;11112;51.270;7.224;2022-08-01T07:22:39;22.90;91.40
21895;DHT22;11112;51.270;7.224;2022-08-01T07:25:07;22.70;91.70
21895;DHT22;11112;51.270;7.224;2022-08-01T07:27:36;22.50;91.90
21895;DHT22;11112;51.270;7.224;2022-08-01T07:30:05;22.20;92.10
21895;DHT22;11112;51.270;7.224;2022-08-01T07:32:33;22.10;92.50
21895;DHT22;11112;51.270;7.224;2022-08-01T07:35:01;22.00;92.70
21895;DHT22;11112;51.270;7.224;2022-08-01T07:37:28;22.10;92.70
21895;DHT22;11112;51.270;7.224;2022-08-01T07:39:55;22.00;92.70
21895;DHT22;11112;51.270;7.224;2022-08-01T07:42:22;22.00;92.70
21895;DHT22;11112;51.270;7.224;2022-08-01T07:44:50;22.00;92.70
21895;DHT22;11112;51.270;7.224;2022-08-01T07:47:23;22.00;92.80
21895;DHT22;11112;51.270;7.224;2022-08-01T07:49:51;22.00;92.70
21895;DHT22;11112;51.270;7.224;2022-08-01T07:52:19;22.00;92.60
21895;DHT22;11112;51.270;7.224;2022-08-01T07:54:46;22.00;92.60
21895;DHT22;11112;51.270;7.224;2022-08-01T07:57:13;22.10;92.30
21895;DHT22;11112;51.270;7.224;2022-08-01T07:59:40;22.00;92.30
21895;DHT22;11112;51.270;7.224;2022-08-01T08:02:08;22.00;92.10
21895;DHT22;11112;51.270;7.224;2022-08-01T08:04:36;22.00;92.20
21895;DHT22;11112;51.270;7.224;2022-08-01T08:07:03;22.10;92.40
21895;DHT22;11112;51.270;7.224;2022-08-01T08:09:30;22.10;92.40
21895;DHT22;11112;51.270;7.224;2022-08-01T08:11:57;22.10;92.20
21895;DHT22;11112;51.270;7.224;2022-08-01T08:14:24;22.20;92.00
21895;DHT22;11112;51.270;7.224;2022-08-01T08:16:52;22.20;91.70
21895;DHT22;11112;51.270;7.224;2022-08-01T08:19:20;22.20;91.40
21895;DHT22;11112;51.270;7.224;2022-08-01T08:21:47;22.20;91.40
21895;DHT22;11112;51.270;7.224;2022-08-01T08:24:14;22.30;91.50
21895;DHT22;11112;51.270;7.224;2022-08-01T08:26:50;22.40;91.20
21895;DHT22;11112;51.270;7.224;2022-08-01T08:29:19;22.50;91.50
21895;DHT22;11112;51.270;7.224;2022-08-01T08:31:46;22.60;90.70
21895;DHT22;11112;51.270;7.224;2022-08-01T08:34:13;22.60;90.60
21895;DHT22;11112;51.270;7.224;2022-08-01T08:36:42;22.60;90.50
21895;DHT22;11112;51.270;7.224;2022-08-01T08:39:09;22.70;90.60
21895;DHT22;11112;51.270;7.224;2022-08-01T08:41:36;22.80;90.40
21895;DHT22;11112;51.270;7.224;2022-08-01T08:44:04;22.80;90.10
21895;DHT22;11112;51.270;7.224;2022-08-01T08:46:33;22.80;90.20
21895;DHT22;11112;51.270;7.224;2022-08-01T08:49:02;22.80;90.20
21895;DHT22;11112;51.270;7.224;2022-08-01T08:51:31;22.80;90.20
21895;DHT22;11112;51.270;7.224;2022-08-01T08:54:03;22.90;90.40
21895;DHT22;11112;51.270;7.224;2022-08-01T08:56:31;22.90;90.30
21895;DHT22;11112;51.270;7.224;2022-08-01T08:59:00;22.90;90.40
21895;DHT22;11112;51.270;7.224;2022-08-01T09:01:28;22.90;90.00
21895;DHT22;11112;51.270;7.224;2022-08-01T09:03:55;22.90;90.00
21895;DHT22;11112;51.270;7.224;2022-08-01T09:06:22;22.90;90.00
21895;DHT22;11112;51.270;7.224;2022-08-01T09:08:49;22.90;89.40
21895;DHT22;11112;51.270;7.224;2022-08-01T09:11:17;22.80;89.40
21895;DHT22;11112;51.270;7.224;2022-08-01T09:14:01;22.80;89.00
21895;DHT22;11112;51.270;7.224;2022-08-01T09:16:34;22.80;89.00
21895;DHT22;11112;51.270;7.224;2022-08-01T09:19:08;22.80;89.30
21895;DHT22;11112;51.270;7.224;2022-08-01T09:21:39;22.80;89.40
21895;DHT22;11112;51.270;7.224;2022-08-01T09:24:14;22.80;89.60
21895;DHT22;11112;51.270;7.224;2022-08-01T09:26:43;22.70;89.60
21895;DHT22;11112;51.270;7.224;2022-08-01T09:29:19;22.70;89.30
21895;DHT22;11112;51.270;7.224;2022-08-01T09:31:48;22.70;89.20
21895;DHT22;11112;51.270;7.224;2022-08-01T09:34:16;22.70;88.70
21895;DHT22;11112;51.270;7.224;2022-08-01T09:36:45;22.70;88.80
21895;DHT22;11112;51.270;7.224;2022-08-01T09:39:19;22.70;89.40
21895;DHT22;11112;51.270;7.224;2022-08-01T09:41:48;22.70;89.50
21895;DHT22;11112;51.270;7.224;2022-08-01T09:44:17;22.60;89.60
21895;DHT22;11112;51.270;7.224;2022-08-01T09:46:50;22.60;89.80
21895;DHT22;11112;51.270;7.224;2022-08-01T09:49:31;22.60;90.00
21895;DHT22;11112;51.270;7.224;2022-08-01T09:52:10;22.60;89.80
21895;DHT22;11112;51.270;7.224;2022-08-01T09:54:40;22.70;89.80
21895;DHT22;11112;51.270;7.224;2022-08-01T09:57:13;22.70;89.50
21895;DHT22;11112;51.270;7.224;2022-08-01T09:59:45;22.70;89.00
21895;DHT22;11112;51.270;7.224;2022-08-01T10:02:14;22.70;89.00
21895;DHT22;11112;51.270;7.224;2022-08-01T10:04:54;22.80;89.10
21895;DHT22;11112;51.270;7.224;2022-08-01T10:07:21;22.90;88.70
21895;DHT22;11112;51.270;7.224;2022-08-01T10:09:48;22.90;87.90
21895;DHT22;11112;51.270;7.224;2022-08-01T10:12:21;22.80;87.60
21895;DHT22;11112;51.270;7.224;2022-08-01T10:14:51;22.90;88.30
21895;DHT22;11112;51.270;7.224;2022-08-01T10:17:24;22.80;87.60
21895;DHT22;11112;51.270;7.224;2022-08-01T10:19:52;22.80;86.50
21895;DHT22;11112;51.270;7.224;2022-08-01T10:22:23;22.80;85.70
21895;DHT22;11112;51.270;7.224;2022-08-01T10:24:55;22.80;85.30
21895;DHT22;11112;51.270;7.224;2022-08-01T10:27:26;22.90;85.30
21895;DHT22;11112;51.270;7.224;2022-08-01T10:29:56;22.90;85.40
21895;DHT22;11112;51.270;7.224;2022-08-01T10:32:29;23.00;85.60
21895;DHT22;11112;51.270;7.224;2022-08-01T10:34:56;23.00;84.80
21895;DHT22;11112;51.270;7.224;2022-08-01T10:37:23;23.00;85.30
21895;DHT22;11112;51.270;7.224;2022-08-01T10:39:51;23.10;85.60
21895;DHT22;11112;51.270;7.224;2022-08-01T10:42:20;23.10;86.00
21895;DHT22;11112;51.270;7.224;2022-08-01T10:44:49;23.20;85.40
21895;DHT22;11112;51.270;7.224;2022-08-01T10:47:21;23.20;84.90
21895;DHT22;11112;51.270;7.224;2022-08-01T10:49:56;23.30;84.30
21895;DHT22;11112;51.270;7.224;2022-08-01T10:52:27;23.30;85.20
21895;DHT22;11112;51.270;7.224;2022-08-01T10:55:02;23.30;83.80
21895;DHT22;11112;51.270;7.224;2022-08-01T10:57:41;23.40;83.70
21895;DHT22;11112;51.270;7.224;2022-08-01T11:00:17;23.40;83.00
21895;DHT22;11112;51.270;7.224;2022-08-01T11:02:57;23.40;83.30
21895;DHT22;11112;51.270;7.224;2022-08-01T11:05:27;23.50;83.50
21895;DHT22;11112;51.270;7.224;2022-08-01T11:07:55;23.50;82.50
21895;DHT22;11112;51.270;7.224;2022-08-01T11:10:26;23.50;82.50
21895;DHT22;11112;51.270;7.224;2022-08-01T11:12:56;23.40;83.80
21895;DHT22;11112;51.270;7.224;2022-08-01T11:15:27;23.30;84.40
21895;DHT22;11112;51.270;7.224;2022-08-01T11:17:55;23.30;84.50
21895;DHT22;11112;51.270;7.224;2022-08-01T11:20:25;23.30;84.60
21895;DHT22;11112;51.270;7.224;2022-08-01T11:23:22;23.30;83.90
21895;DHT22;11112;51.270;7.224;2022-08-01T11:26:11;23.30;81.30
21895;DHT22;11112;51.270;7.224;2022-08-01T11:28:42;23.30;81.50
21895;DHT22;11112;51.270;7.224;2022-08-01T11:31:31;23.30;81.50
21895;DHT22;11112;51.270;7.224;2022-08-01T11:33:59;23.30;81.60
21895;DHT22;11112;51.270;7.224;2022-08-01T11:36:27;23.40;80.20
21895;DHT22;11112;51.270;7.224;2022-08-01T11:39:16;23.40;80.70
21895;DHT22;11112;51.270;7.224;2022-08-01T11:41:45;23.50;81.00
21895;DHT22;11112;51.270;7.224;2022-08-01T11:44:19;23.50;79.00
21895;DHT22;11112;51.270;7.224;2022-08-01T11:47:03;23.50;79.10
21895;DHT22;11112;51.270;7.224;2022-08-01T11:49:49;23.50;77.10
21895;DHT22;11112;51.270;7.224;2022-08-01T11:52:24;23.60;77.20
21895;DHT22;11112;51.270;7.224;2022-08-01T11:54:54;23.60;76.90
21895;DHT22;11112;51.270;7.224;2022-08-01T11:57:25;23.60;77.50
21895;DHT22;11112;51.270;7.224;2022-08-01T11:59:58;23.70;78.20
21895;DHT22;11112;51.270;7.224;2022-08-01T12:02:29;23.70;79.40
21895;DHT22;11112;51.270;7.224;2022-08-01T12:05:01;23.70;79.30
21895;DHT22;11112;51.270;7.224;2022-08-01T12:07:31;23.70;77.90
21895;DHT22;11112;51.270;7.224;2022-08-01T12:10:01;23.70;77.10
21895;DHT22;11112;51.270;7.224;2022-08-01T12:12:30;23.70;76.70
21895;DHT22;11112;51.270;7.224;2022-08-01T12:14:59;23.70;76.00
21895;DHT22;11112;51.270;7.224;2022-08-01T12:17:36;23.70;76.10
21895;DHT22;11112;51.270;7.224;2022-08-01T12:20:06;23.70;76.40
21895;DHT22;11112;51.270;7.224;2022-08-01T12:22:34;23.70;74.90
21895;DHT22;11112;51.270;7.224;2022-08-01T12:25:08;23.70;79.70
21895;DHT22;11112;51.270;7.224;2022-08-01T12:27:38;23.70;81.10
21895;DHT22;11112;51.270;7.224;2022-08-01T12:30:11;23.70;81.70
21895;DHT22;11112;51.270;7.224;2022-08-01T12:32:41;23.70;81.80
21895;DHT22;11112;51.270;7.224;2022-08-01T12:35:12;23.80;80.90
21895;DHT22;11112;51.270;7.224;2022-08-01T12:37:41;23.70;81.10
21895;DHT22;11112;51.270;7.224;2022-08-01T12:40:11;23.70;81.10
21895;DHT22;11112;51.270;7.224;2022-08-01T12:42:41;23.70;81.40
21895;DHT22;11112;51.270;7.224;2022-08-01T12:45:10;23.60;82.30
21895;DHT22;11112;51.270;7.224;2022-08-01T12:47:40;23.60;82.50
21895;DHT22;11112;51.270;7.224;2022-08-01T12:50:11;23.50;83.20
21895;DHT22;11112;51.270;7.224;2022-08-01T12:52:39;23.50;83.50
21895;DHT22;11112;51.270;7.224;2022-08-01T12:55:13;23.50;83.40
21895;DHT22;11112;51.270;7.224;2022-08-01T12:57:43;23.50;83.00
21895;DHT22;11112;51.270;7.224;2022-08-01T13:00:21;23.50;82.30
21895;DHT22;11112;51.270;7.224;2022-08-01T13:03:00;23.60;81.00
21895;DHT22;11112;51.270;7.224;2022-08-01T13:05:41;23.60;80.50
21895;DHT22;11112;51.270;7.224;2022-08-01T13:08:10;23.60;81.00
21895;DHT22;11112;51.270;7.224;2022-08-01T13:10:38;23.60;80.10
21895;DHT22;11112;51.270;7.224;2022-08-01T13:13:05;23.60;80.00
21895;DHT22;11112;51.270;7.224;2022-08-01T13:15:36;23.70;80.70
21895;DHT22;11112;51.270;7.224;2022-08-01T13:18:24;23.60;80.40
21895;DHT22;11112;51.270;7.224;2022-08-01T13:21:07;23.60;80.80
21895;DHT22;11112;51.270;7.224;2022-08-01T13:23:36;23.70;82.10
21895;DHT22;11112;51.270;7.224;2022-08-01T13:26:03;23.70;80.80
21895;DHT22;11112;51.270;7.224;2022-08-01T13:28:32;23.70;80.60
21895;DHT22;11112;51.270;7.224;2022-08-01T13:31:00;23.70;80.30
21895;DHT22;11112;51.270;7.224;2022-08-01T13:33:41;23.70;77.70
21895;DHT22;11112;51.270;7.224;2022-08-01T13:36:09;23.70;78.00
21895;DHT22;11112;51.270;7.224;2022-08-01T13:38:36;23.80;78.10
21895;DHT22;11112;51.270;7.224;2022-08-01T13:41:21;23.80;76.70
21895;DHT22;11112;51.270;7.224;2022-08-01T13:43:48;23.80;77.10
21895;DHT22;11112;51.270;7.224;2022-08-01T13:46:16;23.80;76.30
21895;DHT22;11112;51.270;7.224;2022-08-01T13:48:45;23.90;76.90
21895;DHT22;11112;51.270;7.224;2022-08-01T13:51:12;23.90;78.70
21895;DHT22;11112;51.270;7.224;2022-08-01T13:53:39;23.80;79.50
21895;DHT22;11112;51.270;7.224;2022-08-01T13:56:06;23.80;79.50
21895;DHT22;11112;51.270;7.224;2022-08-01T13:58:33;23.80;79.00
21895;DHT22;11112;51.270;7.224;2022-08-01T14:01:00;23.70;78.20
21895;DHT22;11112;51.270;7.224;2022-08-01T14:03:27;23.70;78.50
21895;DHT22;11112;51.270;7.224;2022-08-01T14:05:57;23.80;78.60
21895;DHT22;11112;51.270;7.224;2022-08-01T14:08:24;23.80;78.60
21895;DHT22;11112;51.270;7.224;2022-08-01T14:10:54;23.80;78.90
21895;DHT22;11112;51.270;7.224;2022-08-01T14:13:22;23.80;79.10
21895;DHT22;11112;51.270;7.224;2022-08-01T14:15:50;23.70;79.20
21895;DHT22;11112;51.270;7.224;2022-08-01T14:18:17;23.70;79.00
21895;DHT22;11112;51.270;7.224;2022-08-01T14:20:44;23.70;79.10
21895;DHT22;11112;51.270;7.224;2022-08-01T14:23:13;23.70;78.60
21895;DHT22;11112;51.270;7.224;2022-08-01T14:25:40;23.70;80.60
21895;DHT22;11112;51.270;7.224;2022-08-01T14:28:08;23.60;81.30
21895;DHT22;11112;51.270;7.224;2022-08-01T14:30:35;23.60;81.40
21895;DHT22;11112;51.270;7.224;2022-08-01T14:33:03;23.60;81.40
21895;DHT22;11112;51.270;7.224;2022-08-01T14:35:32;23.60;82.20
21895;DHT22;11112;51.270;7.224;2022-08-01T14:37:59;23.60;81.10
21895;DHT22;11112;51.270;7.224;2022-08-01T14:40:27;23.60;81.40
21895;DHT22;11112;51.270;7.224;2022-08-01T14:42:55;23.70;81.00
21895;DHT22;11112;51.270;7.224;2022-08-01T14:45:22;23.70;80.80
21895;DHT22;11112;51.270;7.224;2022-08-01T14:47:49;23.70;80.90
21895;DHT22;11112;51.270;7.224;2022-08-01T14:50:16;23.70;81.70
21895;DHT22;11112;51.270;7.224;2022-08-01T14:52:43;23.70;82.20
21895;DHT22;11112;51.270;7.224;2022-08-01T14:55:12;23.60;81.70
21895;DHT22;11112;51.270;7.224;2022-08-01T14:57:40;23.60;82.00
21895;DHT22;11112;51.270;7.224;2022-08-01T15:00:09;23.60;81.60
21895;DHT22;11112;51.270;7.224;2022-08-01T15:02:38;23.60;82.00
21895;DHT22;11112;51.270;7.224;2022-08-01T15:05:06;23.60;81.70
21895;DHT22;11112;51.270;7.224;2022-08-01T15:07:34;23.60;82.10
21895;DHT22;11112;51.270;7.224;2022-08-01T15:10:01;23.70;81.80
21895;DHT22;11112;51.270;7.224;2022-08-01T15:12:29;23.70;81.60
21895;DHT22;11112;51.270;7.224;2022-08-01T15:14:57;23.70;81.60
21895;DHT22;11112;51.270;7.224;2022-08-01T15:17:25;23.70;81.00
21895;DHT22;11112;51.270;7.224;2022-08-01T15:19:55;23.60;81.00
21895;DHT22;11112;51.270;7.224;2022-08-01T15:22:24;23.60;81.50
21895;DHT22;11112;51.270;7.224;2022-08-01T15:24:52;23.60;80.60
21895;DHT22;11112;51.270;7.224;2022-08-01T15:27:20;23.60;80.40
21895;DHT22;11112;51.270;7.224;2022-08-01T15:29:48;23.60;80.10
21895;DHT22;11112;51.270;7.224;2022-08-01T15:32:16;23.50;80.20
21895;DHT22;11112;51.270;7.224;2022-08-01T15:34:44;23.50;80.70
21895;DHT22;11112;51.270;7.224;2022-08-01T15:37:12;23.50;80.60
21895;DHT22;11112;51.270;7.224;2022-08-01T15:39:40;23.50;80.60
21895;DHT22;11112;51.270;7.224;2022-08-01T15:42:10;23.50;80.80
21895;DHT22;11112;51.270;7.224;2022-08-01T15:44:39;23.50;80.60
21895;DHT22;11112;51.270;7.224;2022-08-01T15:47:07;23.50;80.50